Time;durP1;ratioP1;P1;durP2;ratioP2;P2;SDS_P1;SDS_P2;PMS_P1;PMS_P2;Temp;Humidity;BMP_temperature;BMP_pressure;BME280_temperature;BME280_humidity;BME280_pressure;Samples;Min_cycle;Max_cycle;Signal;HPM_P1;HPM_P2
2021/11/02 00:02:01;;;;;;;3.08;0.90;;;7.20;92.10;;;;;;6280546;28;20053;-84
2021/11/02 00:05:03;;;;;;;1.77;0.80;;;7.30;92.10;;;;;;6280832;28;20045;-84
2021/11/02 00:08:06;;;;;;;5.82;1.35;;;7.30;92.20;;;;;;6280236;28;20049;-84
2021/11/02 00:11:08;;;;;;;4.07;0.70;;;7.30;92.20;;;;;;6278400;28;20494;-83
2021/11/02 00:14:15;;;;;;;3.88;0.65;;;7.30;92.20;;;;;;6278130;28;20132;-86
2021/11/02 00:17:22;;;;;;;1.33;0.70;;;7.40;92.30;;;;;;6278272;28;20553;-85
2021/11/02 00:20:24;;;;;;;3.42;1.15;;;7.40;92.30;;;;;;6278248;28;20412;-86
2021/11/02 00:23:27;;;;;;;7.57;1.00;;;7.60;92.30;;;;;;6278231;28;20045;-85
2021/11/02 00:26:29;;;;;;;1.42;0.32;;;7.60;92.20;;;;;;6277871;28;20053;-86
2021/11/02 00:29:32;;;;;;;9.15;3.08;;;7.80;92.20;;;;;;6277429;28;20120;-86
2021/11/02 00:32:34;;;;;;;8.77;1.75;;;7.80;92.10;;;;;;6276446;28;20069;-85
2021/11/02 00:35:36;;;;;;;30.05;2.45;;;7.90;92.10;;;;;;6277890;28;20072;-86
2021/11/02 00:38:37;;;;;;;2.92;0.77;;;8.00;92.10;;;;;;6278896;28;20048;-86
2021/11/02 00:41:39;;;;;;;3.65;1.02;;;8.00;92.00;;;;;;6279514;28;20067;-83
2021/11/02 00:44:44;;;;;;;2.50;0.77;;;8.10;91.90;;;;;;6277284;28;20057;-86
2021/11/02 00:47:49;;;;;;;1.85;0.90;;;8.10;91.90;;;;;;6277605;28;20049;-85
2021/11/02 00:50:51;;;;;;;3.20;0.80;;;8.10;92.00;;;;;;6276801;28;20045;-84
2021/11/02 00:53:53;;;;;;;9.40;1.20;;;8.20;91.90;;;;;;6276771;28;20501;-84
2021/11/02 00:56:55;;;;;;;1.17;0.68;;;8.20;91.90;;;;;;6277188;28;20120;-86
2021/11/02 00:59:58;;;;;;;5.28;1.83;;;8.30;92.00;;;;;;6278044;28;20045;-86
2021/11/02 01:03:00;;;;;;;5.53;0.98;;;8.30;91.90;;;;;;6277926;28;20462;-87
2021/11/02 01:06:02;;;;;;;1.58;0.90;;;8.30;91.90;;;;;;6278377;28;20091;-85
2021/11/02 01:09:05;;;;;;;3.10;0.90;;;8.30;91.90;;;;;;6278084;28;20051;-86
2021/11/02 01:12:07;;;;;;;3.30;1.00;;;8.30;91.90;;;;;;6277685;28;20037;-86
2021/11/02 01:15:13;;;;;;;3.25;0.90;;;8.40;91.90;;;;;;6278193;28;20055;-85
2021/11/02 01:18:14;;;;;;;2.45;1.08;;;8.50;91.80;;;;;;6278528;28;20114;-85
2021/11/02 01:21:16;;;;;;;1.92;1.13;;;8.60;91.80;;;;;;6277906;28;20493;-84
2021/11/02 01:24:18;;;;;;;1.92;0.88;;;8.60;91.80;;;;;;6277741;28;20067;-88
2021/11/02 01:27:20;;;;;;;3.72;0.85;;;8.70;91.80;;;;;;6277751;28;20080;-86
2021/11/02 01:30:23;;;;;;;9.93;1.00;;;8.80;91.70;;;;;;6278010;28;20049;-86
2021/11/02 01:33:25;;;;;;;4.00;0.80;;;8.80;91.70;;;;;;6277079;28;20080;-85
2021/11/02 01:36:28;;;;;;;6.13;0.90;;;8.90;91.70;;;;;;6277797;28;20103;-86
2021/11/02 01:39:30;;;;;;;10.23;1.33;;;9.00;91.70;;;;;;6277688;28;20055;-86
2021/11/02 01:42:32;;;;;;;2.80;0.57;;;9.00;91.60;;;;;;6276617;28;20144;-86
2021/11/02 01:45:35;;;;;;;2.95;1.08;;;9.00;91.60;;;;;;6276792;28;20122;-84
2021/11/02 01:48:37;;;;;;;1.52;0.55;;;9.10;91.70;;;;;;6277073;28;20048;-86
2021/11/02 01:51:40;;;;;;;5.50;0.90;;;9.10;91.80;;;;;;6276694;28;20068;-86
2021/11/02 01:54:42;;;;;;;3.63;0.75;;;9.20;91.80;;;;;;6277101;28;20081;-85
2021/11/02 01:57:46;;;;;;;6.25;0.93;;;9.30;92.00;;;;;;6276961;28;20194;-86
2021/11/02 02:00:55;;;;;;;6.97;1.27;;;9.40;91.80;;;;;;6276987;28;20443;-87
2021/11/02 02:04:07;;;;;;;2.42;1.00;;;9.50;91.80;;;;;;6274666;28;20092;-87
2021/11/02 02:07:19;;;;;;;1.95;1.08;;;9.60;91.80;;;;;;6276896;28;20406;-86
2021/11/02 02:10:25;;;;;;;3.47;0.93;;;9.70;92.00;;;;;;6276595;28;20470;-86
2021/11/02 02:13:36;;;;;;;4.07;1.20;;;9.70;91.80;;;;;;6279737;28;20114;-86
2021/11/02 02:16:44;;;;;;;2.35;0.95;;;9.80;91.70;;;;;;6277981;28;20064;-87
2021/11/02 02:19:51;;;;;;;4.53;1.17;;;9.80;91.70;;;;;;6277820;28;20056;-86
2021/11/02 02:23:07;;;;;;;7.18;1.63;;;9.80;91.80;;;;;;6284288;28;20045;-87
2021/11/02 02:26:20;;;;;;;2.00;1.17;;;9.90;91.70;;;;;;6286594;28;20114;-86
2021/11/02 02:29:25;;;;;;;9.07;1.27;;;9.90;92.00;;;;;;6282955;28;20090;-87
2021/11/02 02:32:28;;;;;;;4.10;1.02;;;9.90;92.00;;;;;;6281850;28;20111;-87
2021/11/02 02:35:32;;;;;;;3.92;1.00;;;10.00;92.20;;;;;;6282239;28;20402;-87
2021/11/02 02:38:36;;;;;;;2.35;1.00;;;10.00;92.20;;;;;;6281312;28;20138;-87
2021/11/02 02:41:40;;;;;;;5.18;0.95;;;10.00;92.20;;;;;;6279998;28;20044;-85
2021/11/02 02:44:46;;;;;;;6.65;1.42;;;9.90;92.20;;;;;;6279425;28;20467;-86
2021/11/02 02:47:49;;;;;;;2.83;1.02;;;9.80;92.30;;;;;;6279396;28;20052;-86
2021/11/02 02:50:53;;;;;;;6.18;1.58;;;9.70;92.40;;;;;;6278879;28;20055;-87
2021/11/02 02:53:56;;;;;;;4.57;1.20;;;9.70;92.50;;;;;;6277955;28;20497;-86
2021/11/02 02:56:59;;;;;;;2.53;1.08;;;9.60;92.50;;;;;;6278317;28;20529;-85
2021/11/02 03:00:04;;;;;;;6.55;1.38;;;9.60;92.60;;;;;;6276997;28;20168;-86
2021/11/02 03:03:07;;;;;;;5.65;1.30;;;9.50;92.60;;;;;;6278584;28;20053;-86
2021/11/02 03:06:13;;;;;;;2.63;1.88;;;9.50;92.50;;;;;;6278071;28;20047;-85
2021/11/02 03:09:16;;;;;;;15.43;1.63;;;9.50;92.50;;;;;;6277513;28;20056;-86
2021/11/02 03:12:25;;;;;;;5.57;1.48;;;9.40;92.60;;;;;;6277302;28;20811;-87
2021/11/02 03:15:48;;;;;;;3.58;1.10;;;9.40;92.80;;;;;;6278404;28;20065;-86
2021/11/02 03:19:18;;;;;;;7.95;1.45;;;9.30;92.80;;;;;;6277431;28;20053;-88
2021/11/02 03:49:22;;;;;;;12.38;2.00;;;9.20;92.80;;;;;;6275702;28;20052;-86
2021/11/02 03:55:53;;;;;;;7.57;1.63;;;9.20;92.50;;;;;;6277090;28;20036;-86
2021/11/02 03:59:15;;;;;;;3.45;1.40;;;9.20;92.50;;;;;;6278009;28;20085;-87
2021/11/02 04:29:49;;;;;;;6.32;2.00;;;9.10;92.00;;;;;;6281353;28;20119;-85
2021/11/02 04:43:32;;;;;;;2.85;1.10;;;8.60;91.90;;;;;;6280813;28;20053;-85
2021/11/02 05:10:36;;;;;;;3.80;0.95;;;7.80;91.90;;;;;;6280804;28;20060;-87
2021/11/02 05:46:38;;;;;;;3.78;1.50;;;7.20;92.10;;;;;;6281835;28;20052;-86
2021/11/02 05:47:32;;;;;;;4.90;1.52;;;7.50;91.90;;;;;;6281491;28;20045;-86
2021/11/02 05:57:18;;;;;;;3.63;2.03;;;7.20;92.00;;;;;;6280025;28;20051;-85
2021/11/02 06:00:22;;;;;;;2.88;1.50;;;7.20;91.90;;;;;;6280809;28;20047;-85
2021/11/02 06:03:33;;;;;;;5.55;1.80;;;7.10;91.90;;;;;;6281067;28;20053;-84
2021/11/02 06:06:41;;;;;;;4.57;2.35;;;7.00;92.00;;;;;;6281100;28;20059;-85
2021/11/02 06:09:50;;;;;;;9.60;3.00;;;7.00;92.10;;;;;;6280719;28;20055;-86
2021/11/02 06:30:05;;;;;;;9.25;2.55;;;6.70;92.10;;;;;;6279661;28;20037;-84
2021/11/02 06:33:13;;;;;;;4.88;2.63;;;6.60;92.00;;;;;;6280415;28;20045;-86
2021/11/02 06:36:48;;;;;;;4.95;1.73;;;6.70;92.10;;;;;;6281563;28;20047;-86
2021/11/02 06:40:10;;;;;;;3.88;1.70;;;6.70;92.10;;;;;;6281267;28;20499;-85
2021/11/02 06:43:55;;;;;;;9.43;2.63;;;6.90;92.00;;;;;;6282233;28;20052;-86
2021/11/02 06:50:45;;;;;;;5.57;2.38;;;7.30;92.10;;;;;;6271177;28;20098;-86
2021/11/02 06:54:17;;;;;;;6.90;2.42;;;7.50;91.80;;;;;;6280869;28;20403;-86
2021/11/02 07:10:52;;;;;;;5.72;2.60;;;7.80;91.60;;;;;;6279873;28;20187;-85
2021/11/02 07:17:57;;;;;;;6.22;2.80;;;8.50;91.50;;;;;;6265360;28;20124;-85
2021/11/02 07:21:06;;;;;;;5.28;2.63;;;8.60;91.20;;;;;;6255717;28;20088;-86
2021/11/02 07:24:15;;;;;;;7.28;2.35;;;8.60;91.20;;;;;;6258308;28;20511;-86
2021/11/02 07:27:31;;;;;;;7.47;3.03;;;8.70;91.30;;;;;;6257026;28;20224;-86
2021/11/02 08:45:19;;;;;;;3.28;1.90;;;11.20;90.90;;;;;;6297714;28;20041;-79
2021/11/02 08:48:22;;;;;;;11.32;2.70;;;11.20;90.90;;;;;;6290335;28;20052;-79
2021/11/02 08:51:26;;;;;;;6.07;1.77;;;11.20;91.00;;;;;;6282431;28;20048;-80
2021/11/02 08:54:28;;;;;;;9.32;1.85;;;11.30;91.00;;;;;;6286438;28;20135;-82
2021/11/02 08:57:31;;;;;;;4.82;1.90;;;11.40;91.00;;;;;;6282623;28;20067;-80
2021/11/02 09:00:34;;;;;;;5.05;1.67;;;11.50;90.90;;;;;;6283205;28;20124;-79
2021/11/02 09:03:38;;;;;;;8.07;1.92;;;11.50;91.00;;;;;;6281980;28;20126;-79
2021/11/02 09:06:42;;;;;;;4.80;1.58;;;11.50;91.00;;;;;;6282288;28;20277;-79
2021/11/02 09:09:47;;;;;;;4.32;1.75;;;11.50;91.00;;;;;;6280597;28;20041;-79
2021/11/02 09:12:52;;;;;;;4.05;1.90;;;11.40;91.10;;;;;;6281507;28;20049;-79
2021/11/02 09:16:00;;;;;;;7.25;2.42;;;11.40;91.30;;;;;;6280782;28;20116;-81
2021/11/02 09:19:03;;;;;;;7.45;1.88;;;11.50;91.40;;;;;;6282890;28;20695;-81
2021/11/02 09:22:08;;;;;;;5.07;2.10;;;11.50;91.40;;;;;;6280637;28;20525;-85
2021/11/02 09:25:11;;;;;;;12.35;2.65;;;11.50;91.40;;;;;;6278697;28;20506;-81
2021/11/02 09:28:14;;;;;;;6.15;3.13;;;11.60;91.40;;;;;;6277902;28;20135;-83
2021/11/02 09:31:19;;;;;;;4.35;1.52;;;11.50;91.40;;;;;;6277126;28;20045;-81
2021/11/02 09:34:21;;;;;;;4.15;2.08;;;11.50;91.70;;;;;;6278364;28;20055;-82
2021/11/02 09:37:31;;;;;;;5.80;1.10;;;11.40;92.00;;;;;;6277598;28;20432;-81
2021/11/02 09:41:20;;;;;;;8.82;1.42;;;11.30;92.20;;;;;;6278004;28;20072;-81
2021/11/02 09:45:00;;;;;;;7.32;1.77;;;11.30;92.30;;;;;;6279927;28;20048;-82
2021/11/02 09:48:49;;;;;;;7.13;1.40;;;11.30;92.50;;;;;;6281747;28;20081;-81
2021/11/02 09:52:22;;;;;;;4.97;1.40;;;11.40;93.00;;;;;;6286057;28;20040;-81
2021/11/02 09:55:58;;;;;;;4.03;1.30;;;11.30;92.70;;;;;;6282867;28;20048;-83
2021/11/02 09:59:39;;;;;;;3.30;1.35;;;11.30;92.90;;;;;;6281386;28;20045;-82
2021/11/02 10:03:18;;;;;;;4.03;1.25;;;11.30;93.10;;;;;;6269062;28;20041;-80
2021/11/02 10:06:36;;;;;;;5.63;1.20;;;11.30;92.80;;;;;;6278483;28;20049;-81
2021/11/02 10:09:46;;;;;;;1.60;0.93;;;11.30;92.90;;;;;;6277527;28;20052;-82
2021/11/02 10:12:59;;;;;;;3.65;0.88;;;11.30;92.90;;;;;;6277946;28;20045;-82
2021/11/02 10:16:15;;;;;;;2.40;1.50;;;11.20;92.90;;;;;;6277196;28;20486;-84
2021/11/02 10:19:51;;;;;;;3.15;1.25;;;11.20;92.80;;;;;;6275917;28;20516;-83
2021/11/02 10:23:18;;;;;;;1.05;0.50;;;11.10;92.80;;;;;;6276093;28;20136;-83
2021/11/02 10:26:29;;;;;;;4.82;0.70;;;11.20;92.90;;;;;;6278469;28;20076;-84
2021/11/02 10:30:04;;;;;;;2.78;0.73;;;11.20;92.90;;;;;;6277148;28;20076;-81
2021/11/02 10:33:19;;;;;;;5.60;1.95;;;11.30;93.00;;;;;;6277505;28;20056;-83
2021/11/02 10:36:34;;;;;;;9.20;5.60;;;11.40;93.00;;;;;;6277233;28;20127;-81
2021/11/02 10:39:49;;;;;;;5.00;0.60;;;11.60;92.80;;;;;;6278180;28;20056;-81
2021/11/02 10:43:16;;;;;;;2.25;0.98;;;11.70;92.80;;;;;;6276427;28;20044;-82
2021/11/02 10:46:25;;;;;;;4.70;1.15;;;11.90;92.50;;;;;;6277617;28;20052;-81
2021/11/02 10:49:32;;;;;;;1.08;0.50;;;12.10;92.10;;;;;;6268484;28;20059;-82
2021/11/02 10:52:36;;;;;;;2.17;0.80;;;12.20;92.40;;;;;;6276991;28;20079;-82
2021/11/02 10:55:49;;;;;;;3.60;1.17;;;12.20;91.80;;;;;;6276003;28;20075;-82
2021/11/02 10:58:52;;;;;;;2.15;0.80;;;12.20;91.40;;;;;;6276745;28;20568;-81
2021/11/02 11:01:55;;;;;;;3.38;0.52;;;12.10;91.70;;;;;;6251653;28;20072;-81
2021/11/02 11:04:59;;;;;;;1.45;0.45;;;12.10;91.50;;;;;;6251042;28;20050;-83
2021/11/02 11:08:03;;;;;;;3.00;0.88;;;12.10;91.20;;;;;;6259143;28;20041;-81
2021/11/02 11:11:06;;;;;;;1.13;0.30;;;12.20;91.30;;;;;;6275873;28;20049;-81
2021/11/02 11:14:12;;;;;;;2.25;0.45;;;12.30;91.20;;;;;;6275917;28;20056;-82
2021/11/02 11:17:17;;;;;;;1.80;0.20;;;12.30;91.20;;;;;;6278009;28;20060;-81
2021/11/02 11:20:19;;;;;;;1.88;0.60;;;12.30;91.20;;;;;;6276155;28;20056;-82
2021/11/02 11:23:22;;;;;;;4.43;0.70;;;12.40;91.00;;;;;;6281215;28;20037;-82
2021/11/02 11:26:26;;;;;;;2.22;1.35;;;12.50;91.10;;;;;;6280907;28;20055;-85
2021/11/02 11:29:30;;;;;;;1.90;0.45;;;12.60;90.80;;;;;;6280044;28;20045;-80
2021/11/02 11:32:35;;;;;;;2.53;0.57;;;12.60;90.60;;;;;;6256876;28;20048;-81
2021/11/02 11:35:38;;;;;;;0.60;0.50;;;12.70;90.50;;;;;;6282590;28;20049;-83
2021/11/02 11:38:43;;;;;;;0.88;0.30;;;12.80;90.70;;;;;;6282101;28;20083;-84
2021/11/02 11:41:50;;;;;;;136.25;34.92;;;12.80;90.20;;;;;;6281380;28;20053;-82
2021/11/02 11:44:53;;;;;;;118.53;31.10;;;12.80;90.20;;;;;;6281885;28;20425;-80
2021/11/02 11:48:08;;;;;;;4.28;1.55;;;13.00;90.00;;;;;;6280159;28;20048;-81
2021/11/02 11:51:20;;;;;;;16.35;7.10;;;13.10;89.30;;;;;;6281892;28;20070;-83
2021/11/02 11:54:22;;;;;;;6.03;3.72;;;13.20;90.00;;;;;;6282446;28;20048;-83
2021/11/02 11:57:29;;;;;;;1.52;0.77;;;13.30;88.10;;;;;;6286008;28;20053;-83
2021/11/02 12:00:31;;;;;;;1.77;0.68;;;13.30;87.60;;;;;;6281181;28;20122;-82
2021/11/02 12:03:43;;;;;;;1.38;0.90;;;13.30;88.00;;;;;;6267051;28;20578;-80
2021/11/02 12:07:02;;;;;;;0.98;0.55;;;13.40;87.50;;;;;;6257627;28;20053;-83
2021/11/02 12:10:07;;;;;;;1.25;0.68;;;13.50;87.20;;;;;;6257101;28;20417;-80
2021/11/02 12:13:11;;;;;;;4.88;0.60;;;13.60;86.90;;;;;;6257171;28;20050;-82
2021/11/02 12:16:21;;;;;;;0.30;0.20;;;13.70;87.70;;;;;;6270455;28;20131;-80
2021/11/02 12:19:39;;;;;;;1.48;0.40;;;13.90;86.80;;;;;;6297274;28;20083;-79
2021/11/02 12:22:49;;;;;;;3.40;0.65;;;14.30;85.30;;;;;;6293197;28;20041;-80
2021/11/02 12:25:54;;;;;;;1.05;0.22;;;14.70;87.10;;;;;;6281800;28;20041;-79
2021/11/02 12:28:56;;;;;;;1.58;0.50;;;14.90;82.20;;;;;;6280520;28;20467;-80
2021/11/02 12:31:59;;;;;;;0.70;0.30;;;14.70;83.10;;;;;;6282321;28;20041;-82
2021/11/02 12:35:14;;;;;;;1.38;0.30;;;14.70;83.70;;;;;;6287333;28;20053;-80
2021/11/02 12:38:27;;;;;;;2.28;0.50;;;15.00;83.60;;;;;;6282642;28;20103;-80
2021/11/02 12:41:30;;;;;;;3.15;0.32;;;15.10;82.80;;;;;;6279992;28;20450;-81
2021/11/02 12:44:33;;;;;;;1.08;0.30;;;15.30;82.90;;;;;;6279866;28;20049;-80
2021/11/02 12:47:36;;;;;;;1.95;0.20;;;15.40;80.00;;;;;;6279902;28;20080;-80
2021/11/02 12:50:40;;;;;;;2.22;0.30;;;15.40;80.70;;;;;;6280688;28;20086;-79
2021/11/02 12:53:49;;;;;;;1.05;0.35;;;15.20;76.60;;;;;;6279139;28;20037;-80
2021/11/02 12:56:55;;;;;;;2.05;0.20;;;14.80;76.80;;;;;;6278898;28;20045;-80
2021/11/02 13:00:00;;;;;;;0.22;0.10;;;14.80;77.00;;;;;;6278894;28;20056;-81
2021/11/02 13:03:11;;;;;;;1.60;0.30;;;14.90;75.90;;;;;;6275358;28;20511;-79
2021/11/02 13:06:14;;;;;;;2.08;0.30;;;15.00;75.50;;;;;;6256446;28;20071;-79
2021/11/02 13:09:18;;;;;;;0.73;0.22;;;15.10;76.40;;;;;;6254468;28;20176;-81
2021/11/02 13:12:25;;;;;;;0.88;0.22;;;15.10;77.10;;;;;;6255093;28;20101;-79
2021/11/02 13:15:26;;;;;;;0.57;0.30;;;15.20;76.80;;;;;;6261321;28;20411;-79
2021/11/02 13:18:30;;;;;;;2.15;0.73;;;15.40;77.00;;;;;;6277249;28;20384;-80
2021/11/02 13:21:35;;;;;;;0.52;0.20;;;15.80;77.80;;;;;;6278666;28;20056;-78
2021/11/02 13:24:37;;;;;;;1.63;0.30;;;16.10;73.30;;;;;;6278879;28;20131;-80
2021/11/02 13:27:41;;;;;;;0.40;0.20;;;16.00;72.50;;;;;;6279529;28;20667;-81
2021/11/02 13:30:43;;;;;;;1.75;0.03;;;15.90;75.00;;;;;;6278939;28;20051;-81
2021/11/02 13:33:58;;;;;;;1.15;0.43;;;16.00;71.30;;;;;;6278522;28;20102;-81
2021/11/02 13:37:04;;;;;;;0.45;0.10;;;15.90;72.30;;;;;;6279262;28;20127;-80
2021/11/02 13:40:06;;;;;;;0.25;0.20;;;15.90;72.40;;;;;;6277239;28;20045;-81
2021/11/02 13:43:08;;;;;;;0.45;0.20;;;16.00;72.10;;;;;;6278794;28;20152;-81
2021/11/02 13:46:12;;;;;;;0.52;0.20;;;16.20;72.50;;;;;;6279762;28;20510;-81
2021/11/02 13:49:15;;;;;;;1.15;0.47;;;16.50;72.60;;;;;;6279040;28;20040;-83
2021/11/02 13:52:19;;;;;;;1.10;0.20;;;16.70;70.10;;;;;;6278138;28;20099;-79
2021/11/02 13:55:23;;;;;;;0.70;0.10;;;16.90;68.90;;;;;;6279061;28;20459;-80
2021/11/02 13:58:25;;;;;;;0.57;0.20;;;16.90;68.20;;;;;;6261097;22;20069;-82
2021/11/02 14:01:32;;;;;;;0.68;0.10;;;17.00;68.40;;;;;;6227085;28;20053;-80
2021/11/02 14:04:38;;;;;;;0.20;0.10;;;17.00;68.90;;;;;;6224396;28;20053;-81
2021/11/02 14:07:45;;;;;;;0.65;0.20;;;16.80;67.20;;;;;;6224706;28;20518;-79
2021/11/02 14:10:52;;;;;;;3.25;0.25;;;16.60;67.40;;;;;;6225865;28;20053;-81
2021/11/02 14:13:55;;;;;;;1.95;0.15;;;16.20;66.90;;;;;;6228101;28;20042;-81
2021/11/02 14:16:57;;;;;;;2.67;0.13;;;15.70;67.40;;;;;;6234540;28;20599;-82
2021/11/02 14:19:59;;;;;;;0.45;0.10;;;15.30;68.20;;;;;;6246229;28;20054;-81
2021/11/02 14:23:04;;;;;;;1.75;0.28;;;14.90;70.90;;;;;;6250578;28;20849;-81
2021/11/02 14:26:23;;;;;;;2.03;0.30;;;14.60;73.40;;;;;;6249776;28;20045;-81
2021/11/02 14:29:50;;;;;;;0.60;0.28;;;14.30;74.70;;;;;;6250471;28;20097;-81
2021/11/02 14:32:53;;;;;;;10.20;3.58;;;14.00;76.20;;;;;;6250613;28;20046;-83
2021/11/02 14:36:02;;;;;;;0.57;0.13;;;13.80;78.20;;;;;;6249068;28;20502;-81
2021/11/02 14:39:05;;;;;;;0.90;0.47;;;13.60;78.80;;;;;;6225671;28;20050;-81
2021/11/02 14:42:07;;;;;;;0.85;0.30;;;13.40;79.80;;;;;;6225572;28;20045;-81
2021/11/02 14:45:11;;;;;;;50.88;29.40;;;13.30;80.70;;;;;;6225453;28;20054;-82
2021/11/02 14:48:29;;;;;;;11.10;7.03;;;13.10;82.00;;;;;;6240526;28;20067;-82
2021/11/02 14:51:32;;;;;;;5.85;2.47;;;13.00;82.00;;;;;;6250557;28;20096;-82
2021/11/02 14:54:37;;;;;;;2.13;0.85;;;12.90;83.60;;;;;;6251197;28;20115;-81
2021/11/02 14:57:52;;;;;;;2.75;1.85;;;12.60;84.00;;;;;;6248612;28;20051;-81
2021/11/02 15:00:55;;;;;;;4.38;2.15;;;12.00;87.30;;;;;;6249047;28;20076;-81
2021/11/02 15:03:59;;;;;;;11.93;7.47;;;11.50;90.10;;;;;;6249034;28;20045;-82
2021/11/02 15:07:04;;;;;;;2.95;1.75;;;11.20;91.20;;;;;;6226366;28;20132;-81
2021/11/02 15:10:09;;;;;;;4.38;2.05;;;10.90;92.00;;;;;;6224339;28;20057;-82
2021/11/02 15:13:11;;;;;;;3.47;2.58;;;10.70;92.80;;;;;;6224247;28;20057;-80
2021/11/02 15:16:13;;;;;;;6.10;2.42;;;10.60;93.10;;;;;;6224184;28;20050;-80
2021/11/02 15:19:17;;;;;;;12.02;7.57;;;10.40;93.50;;;;;;6232104;28;20105;-80
2021/11/02 15:22:21;;;;;;;7.32;1.73;;;10.30;93.80;;;;;;6224725;28;20057;-80
2021/11/02 15:25:24;;;;;;;2.35;0.70;;;10.30;94.40;;;;;;6223104;28;20046;-81
2021/11/02 15:28:26;;;;;;;0.82;0.25;;;10.40;94.20;;;;;;6226207;28;20054;-82
2021/11/02 15:31:28;;;;;;;0.85;0.35;;;10.30;94.00;;;;;;6228620;28;20141;-81
2021/11/02 15:34:44;;;;;;;2.60;2.30;;;10.30;94.20;;;;;;6223724;28;20059;-82
2021/11/02 15:37:47;;;;;;;0.40;0.20;;;10.30;94.40;;;;;;6223076;28;20063;-81
2021/11/02 15:40:51;;;;;;;1.17;1.08;;;10.40;94.30;;;;;;6225067;28;20050;-81
2021/11/02 15:43:59;;;;;;;4.10;3.63;;;10.40;94.50;;;;;;6225875;28;20042;-83
2021/11/02 15:47:00;;;;;;;3.47;0.73;;;10.40;94.50;;;;;;6230892;28;20135;-81
2021/11/02 15:50:06;;;;;;;2.25;0.57;;;10.40;94.40;;;;;;6244014;28;20124;-82
2021/11/02 15:53:10;;;;;;;2.40;0.43;;;10.40;94.30;;;;;;6247406;28;20047;-81
2021/11/02 15:56:24;;;;;;;1.17;0.45;;;10.30;94.60;;;;;;6247268;28;20049;-81
2021/11/02 15:59:27;;;;;;;1.20;0.30;;;10.30;94.60;;;;;;6248924;28;20103;-81
2021/11/02 16:02:36;;;;;;;1.98;1.58;;;10.30;94.60;;;;;;6249682;28;20131;-81
2021/11/02 16:05:41;;;;;;;5.85;0.50;;;10.40;94.60;;;;;;6248873;28;20107;-81
2021/11/02 16:08:43;;;;;;;1.60;0.70;;;10.30;94.60;;;;;;6226560;28;20396;-82
2021/11/02 16:11:48;;;;;;;0.82;0.30;;;10.40;94.80;;;;;;6227511;28;20057;-80
2021/11/02 16:14:56;;;;;;;3.67;0.30;;;10.40;94.70;;;;;;6227382;28;20056;-80
2021/11/02 16:18:00;;;;;;;4.50;0.70;;;10.40;95.00;;;;;;6234696;28;20676;-79
2021/11/02 16:21:04;;;;;;;0.88;0.55;;;10.40;94.80;;;;;;6226196;28;20132;-80
2021/11/02 16:24:11;;;;;;;2.55;0.35;;;10.40;94.70;;;;;;6227563;28;20056;-81
2021/11/02 16:27:22;;;;;;;3.42;0.50;;;10.40;94.80;;;;;;6225853;28;20073;-80
2021/11/02 16:30:26;;;;;;;1.65;0.65;;;10.50;94.80;;;;;;6237931;28;20053;-80
2021/11/02 16:33:32;;;;;;;2.95;0.55;;;10.50;94.80;;;;;;6250196;28;20518;-81
2021/11/02 16:36:39;;;;;;;4.47;0.63;;;10.50;94.70;;;;;;6251075;28;20465;-83
2021/11/02 16:39:41;;;;;;;0.65;0.30;;;10.50;94.60;;;;;;6250762;28;20191;-83
2021/11/02 16:42:52;;;;;;;1.17;0.30;;;10.50;94.60;;;;;;6255599;28;20753;-82
2021/11/02 16:45:54;;;;;;;1.42;0.35;;;10.50;94.70;;;;;;6245871;28;20147;-82
2021/11/02 16:49:00;;;;;;;0.85;0.43;;;10.40;94.70;;;;;;6243625;28;20046;-82
2021/11/02 16:52:07;;;;;;;1.40;0.60;;;10.40;94.70;;;;;;6251219;28;20049;-80
2021/11/02 16:55:10;;;;;;;1.23;0.50;;;10.40;94.80;;;;;;6255952;28;20507;-83
2021/11/02 16:58:35;;;;;;;1.05;0.40;;;10.50;94.90;;;;;;6256522;28;20052;-83
2021/11/02 17:01:37;;;;;;;2.90;0.65;;;10.40;94.70;;;;;;6256912;28;20049;-82
2021/11/02 17:04:39;;;;;;;3.28;0.70;;;10.40;94.80;;;;;;6256816;28;20187;-82
2021/11/02 17:07:44;;;;;;;4.82;0.77;;;10.50;94.70;;;;;;6244314;28;20054;-83
2021/11/02 17:10:51;;;;;;;12.43;7.03;;;10.50;94.70;;;;;;6206960;28;20074;-82
2021/11/02 17:13:55;;;;;;;24.35;7.57;;;10.50;95.60;;;;;;6209357;28;20039;-83
2021/11/02 17:16:58;;;;;;;24.27;6.47;;;10.60;95.10;;;;;;6236985;28;20180;-83
2021/11/02 17:20:00;;;;;;;17.20;5.70;;;10.80;95.30;;;;;;6255023;28;20049;-82
2021/11/02 17:23:03;;;;;;;2.78;1.23;;;10.80;94.90;;;;;;6255211;28;20045;-83
2021/11/02 17:26:07;;;;;;;2.17;1.63;;;10.80;95.00;;;;;;6254359;28;20061;-80
2021/11/02 17:29:10;;;;;;;5.75;2.25;;;10.80;94.60;;;;;;6253258;28;20051;-82
2021/11/02 17:32:13;;;;;;;4.88;2.78;;;10.80;94.60;;;;;;6255102;28;20050;-83
2021/11/02 17:35:16;;;;;;;4.03;2.03;;;10.80;94.60;;;;;;6255523;28;20533;-83
2021/11/02 17:38:21;;;;;;;5.00;2.17;;;10.80;94.40;;;;;;6253746;28;20049;-83
2021/11/02 17:41:24;;;;;;;6.88;2.58;;;10.80;94.50;;;;;;6244414;28;20073;-83
2021/11/02 17:44:28;;;;;;;13.43;4.65;;;10.80;94.70;;;;;;6253677;28;20133;-83
2021/11/02 17:47:30;;;;;;;6.82;2.15;;;10.80;94.80;;;;;;6239682;28;20104;-82
2021/11/02 17:50:34;;;;;;;7.72;2.88;;;10.90;95.20;;;;;;6254778;28;20053;-81
2021/11/02 17:53:37;;;;;;;5.38;2.55;;;11.00;95.50;;;;;;6254882;28;20061;-82
2021/11/02 17:56:39;;;;;;;5.20;2.92;;;11.20;95.30;;;;;;6253224;28;20057;-81
2021/11/02 17:59:44;;;;;;;5.97;3.45;;;11.30;95.30;;;;;;6253090;28;20422;-83
2021/11/02 18:02:48;;;;;;;6.45;3.45;;;11.40;95.00;;;;;;6253243;28;20426;-81
2021/11/02 18:05:54;;;;;;;11.00;3.38;;;11.30;94.60;;;;;;6253035;28;20046;-81
2021/11/02 18:08:57;;;;;;;5.45;3.10;;;11.20;94.40;;;;;;6242588;28;20554;-82
2021/11/02 18:11:59;;;;;;;4.82;2.92;;;11.20;94.40;;;;;;6228587;28;20593;-82
2021/11/02 18:15:04;;;;;;;7.25;5.55;;;11.10;94.40;;;;;;6234447;28;20050;-81
2021/11/02 18:18:08;;;;;;;17.23;11.13;;;11.10;94.30;;;;;;6243946;28;20096;-82
2021/11/02 18:21:13;;;;;;;22.00;15.70;;;11.10;94.30;;;;;;6253048;28;20095;-81
2021/11/02 18:24:17;;;;;;;20.38;11.88;;;11.10;94.30;;;;;;6254138;28;20065;-80
2021/11/02 18:27:21;;;;;;;6.32;3.50;;;11.00;94.20;;;;;;6254596;28;20049;-82
2021/11/02 18:30:26;;;;;;;6.25;3.95;;;10.90;94.60;;;;;;6253796;28;20060;-81
2021/11/02 18:33:28;;;;;;;8.63;4.75;;;10.90;94.90;;;;;;6254083;28;20045;-83
2021/11/02 18:36:31;;;;;;;6.22;3.20;;;10.90;94.80;;;;;;6256094;28;20048;-81
2021/11/02 18:39:33;;;;;;;6.25;3.05;;;10.80;94.90;;;;;;6257618;28;20057;-85
2021/11/02 18:42:35;;;;;;;6.38;3.45;;;10.70;94.90;;;;;;6256649;28;20108;-81
2021/11/02 18:45:39;;;;;;;6.45;4.20;;;10.70;95.00;;;;;;6246698;28;20131;-80
2021/11/02 18:48:42;;;;;;;7.30;3.65;;;10.70;95.20;;;;;;6245149;28;20140;-82
2021/11/02 18:51:44;;;;;;;8.95;4.70;;;10.70;94.90;;;;;;6250879;28;20541;-82
2021/11/02 18:54:47;;;;;;;7.85;4.30;;;10.70;95.10;;;;;;6251758;28;20069;-81
2021/11/02 18:57:49;;;;;;;9.80;4.07;;;10.70;95.10;;;;;;6254658;28;20551;-84
2021/11/02 19:00:53;;;;;;;6.95;3.80;;;10.70;95.00;;;;;;6254019;28;20130;-81
2021/11/02 19:03:55;;;;;;;10.73;5.05;;;10.70;95.00;;;;;;6254007;28;20046;-81
2021/11/02 19:06:59;;;;;;;7.35;5.05;;;10.70;95.00;;;;;;6253676;28;20452;-80
2021/11/02 19:10:01;;;;;;;6.32;3.78;;;10.70;94.90;;;;;;6237389;28;20144;-81
2021/11/02 19:13:03;;;;;;;8.60;4.40;;;10.70;94.90;;;;;;6228502;28;20101;-81
2021/11/02 19:16:06;;;;;;;5.78;3.55;;;10.70;95.00;;;;;;6233205;28;20049;-81
2021/11/02 19:19:09;;;;;;;6.78;4.30;;;10.70;94.90;;;;;;6247177;28;20131;-82
2021/11/02 19:22:11;;;;;;;8.73;4.15;;;10.70;94.90;;;;;;6254302;28;20503;-81
2021/11/02 19:25:13;;;;;;;6.85;3.22;;;10.70;94.90;;;;;;6251781;28;20057;-83
2021/11/02 19:28:15;;;;;;;5.65;2.95;;;10.70;94.80;;;;;;6252600;28;20065;-82
2021/11/02 19:31:22;;;;;;;7.80;3.90;;;10.70;94.80;;;;;;6252392;28;20068;-83
2021/11/02 19:34:24;;;;;;;8.35;4.25;;;10.70;94.80;;;;;;6253251;28;20053;-81
2021/11/02 19:37:26;;;;;;;8.40;3.28;;;10.60;94.50;;;;;;6257670;28;20521;-80
2021/11/02 19:40:27;;;;;;;7.00;2.67;;;10.50;94.70;;;;;;6257726;28;20037;-81
2021/11/02 19:43:29;;;;;;;7.65;3.60;;;10.50;94.80;;;;;;6260048;28;20054;-80
2021/11/02 19:46:32;;;;;;;5.88;3.70;;;10.50;94.70;;;;;;6250512;28;20056;-81
2021/11/02 19:49:35;;;;;;;11.65;3.30;;;10.40;94.70;;;;;;6248759;28;20113;-81
2021/11/02 19:52:37;;;;;;;6.68;3.30;;;10.30;94.60;;;;;;6254524;28;20049;-81
2021/11/02 19:55:40;;;;;;;7.43;3.67;;;10.30;94.70;;;;;;6255631;28;20514;-81
2021/11/02 19:58:44;;;;;;;12.57;3.40;;;10.30;94.70;;;;;;6258197;28;20065;-82
2021/11/02 20:01:47;;;;;;;7.38;3.95;;;10.20;94.70;;;;;;6259533;28;20053;-83
2021/11/02 20:04:48;;;;;;;8.52;3.83;;;10.20;94.70;;;;;;6262010;28;20042;-83
2021/11/02 20:08:01;;;;;;;8.38;3.83;;;10.20;94.80;;;;;;6259163;28;20121;-84
2021/11/02 20:11:16;;;;;;;8.20;3.85;;;10.30;94.80;;;;;;6240976;28;20445;-83
2021/11/02 20:14:20;;;;;;;6.93;4.10;;;10.30;94.80;;;;;;6208134;28;20050;-82
2021/11/02 20:17:24;;;;;;;8.85;3.72;;;10.30;94.70;;;;;;6230895;28;20050;-84